Time;durP1;ratioP1;P1;durP2;ratioP2;P2;SDS_P1;SDS_P2;PMS_P1;PMS_P2;Temp;Humidity;BMP_temperature;BMP_pressure;BME280_temperature;BME280_humidity;BME280_pressure;Samples;Min_cycle;Max_cycle;Signal;HPM_P1;HPM_P2
2023/01/27 00:00:52;;;;;;;10.63;7.90;;;;;;;3.72;75.75;98786.00;5108350;28;20107;-80
2023/01/27 00:03:18;;;;;;;8.20;7.00;;;;;;;4.20;75.66;98842.94;5092767;28;20023;-81
2023/01/27 00:05:45;;;;;;;10.13;8.20;;;;;;;4.26;75.23;98826.63;5092372;28;20129;-80
2023/01/27 00:08:11;;;;;;;7.73;6.93;;;;;;;2.22;75.06;98545.22;5108201;28;20032;-80
2023/01/27 00:10:37;;;;;;;7.77;6.97;;;;;;;3.87;75.26;98742.69;5107680;28;20020;-80
2023/01/27 00:15:46;;;;;;;9.47;8.00;;;;;;;4.18;75.28;98781.34;5092550;28;20519;-80
2023/01/27 00:18:12;;;;;;;11.07;8.53;;;;;;;3.05;75.35;98597.84;5092102;28;20024;-80
2023/01/27 00:26:11;;;;;;;9.13;7.60;;;;;;;4.38;75.22;98816.72;5092460;28;20100;-80
2023/01/27 00:28:37;;;;;;;9.00;7.67;;;;;;;3.99;74.95;98756.28;5092932;28;20098;-80
2023/01/27 00:31:04;;;;;;;9.80;6.60;;;;;;;4.39;75.02;98818.38;5094831;28;20026;-80
2023/01/27 00:33:30;;;;;;;10.37;6.90;;;;;;;4.03;74.96;98755.00;5093319;28;20082;-81
2023/01/27 00:36:06;;;;;;;7.40;5.90;;;;;;;4.39;74.74;98811.34;5095761;28;20493;-80
2023/01/27 00:38:39;;;;;;;8.93;7.23;;;;;;;3.92;75.06;98755.28;5094328;28;20020;-80
2023/01/27 00:41:14;;;;;;;10.20;7.37;;;;;;;3.99;74.94;98751.06;5094570;28;20019;-80
2023/01/27 00:43:39;;;;;;;9.30;6.50;;;;;;;3.58;74.59;98695.16;5092432;28;20016;-80
2023/01/27 00:46:05;;;;;;;6.77;6.07;;;;;;;3.98;74.99;98744.19;5091783;28;20492;-80
2023/01/27 00:48:30;;;;;;;14.23;8.53;;;;;;;4.19;74.75;98783.00;5107422;28;20024;-80
2023/01/27 00:50:56;;;;;;;9.90;7.90;;;;;;;3.82;74.85;98722.25;5107441;28;20024;-80
2023/01/27 00:53:22;;;;;;;8.47;7.10;;;;;;;4.46;74.90;98817.63;5091474;28;20089;-80
2023/01/27 00:55:47;;;;;;;7.97;6.83;;;;;;;4.21;74.93;98794.94;5107298;28;20447;-80
2023/01/27 00:58:13;;;;;;;8.37;6.70;;;;;;;3.99;74.68;98714.50;5091539;28;20024;-80
2023/01/27 01:00:38;;;;;;;7.00;6.30;;;;;;;4.52;74.56;98800.47;5091621;28;20020;-80
2023/01/27 01:03:04;;;;;;;7.50;6.70;;;;;;;4.01;74.56;98736.06;5091668;28;20028;-80
2023/01/27 01:05:30;;;;;;;14.63;10.43;;;;;;;3.66;74.46;98672.53;5107134;28;20417;-80
2023/01/27 01:07:55;;;;;;;10.80;7.90;;;;;;;3.88;74.43;98702.53;5091486;28;21121;-80
2023/01/27 01:10:21;;;;;;;7.53;6.57;;;;;;;4.19;74.39;98749.84;5107166;28;20107;-80
2023/01/27 01:12:46;;;;;;;8.87;7.53;;;;;;;4.41;74.32;98809.41;5110456;28;20113;-80
2023/01/27 01:15:12;;;;;;;8.53;7.47;;;;;;;3.81;74.25;98704.13;5114683;28;20047;-80
2023/01/27 01:17:37;;;;;;;8.40;7.03;;;;;;;4.08;74.51;98730.06;5098997;28;20415;-80
2023/01/27 01:20:03;;;;;;;8.80;7.63;;;;;;;4.18;74.23;98745.59;5098814;28;20079;-80
2023/01/27 01:22:28;;;;;;;8.37;7.03;;;;;;;3.82;74.17;98692.72;5101222;28;20024;-79
2023/01/27 01:24:54;;;;;;;7.07;6.13;;;;;;;3.79;74.32;98666.91;5102999;28;20437;-81
2023/01/27 01:27:19;;;;;;;8.97;7.80;;;;;;;3.43;74.03;98595.75;5101314;28;20028;-79
2023/01/27 01:29:44;;;;;;;8.43;7.27;;;;;;;4.53;74.00;98743.78;5095536;28;20408;-80
2023/01/27 01:32:10;;;;;;;8.93;7.40;;;;;;;4.07;74.18;98670.94;5095263;28;20023;-80
2023/01/27 01:34:36;;;;;;;8.27;7.10;;;;;;;4.19;74.32;98673.28;5095102;28;20016;-80
2023/01/27 01:37:02;;;;;;;8.23;6.53;;;;;;;4.33;74.07;98691.75;5095098;28;20027;-80
2023/01/27 01:39:28;;;;;;;8.10;6.90;;;;;;;4.05;74.16;98640.75;5110946;28;20024;-80
2023/01/27 01:41:53;;;;;;;8.80;7.20;;;;;;;4.51;74.27;98728.28;5095117;28;20044;-80
2023/01/27 01:44:30;;;;;;;10.33;7.83;;;;;;;4.09;73.83;98670.78;5095431;28;20024;-80
2023/01/27 01:46:56;;;;;;;12.53;8.33;;;;;;;4.07;74.00;98667.53;5093883;28;20020;-80
2023/01/27 01:49:28;;;;;;;9.97;8.37;;;;;;;4.00;74.05;98656.06;5095038;28;20024;-80
2023/01/27 01:51:56;;;;;;;;;;;;;;;4.40;74.63;98741.59;5095352;28;20119;-80
2023/01/27 01:54:29;;;;;;;9.13;7.57;;;;;;;4.52;74.02;98718.63;5094851;28;20366;-80
2023/01/27 01:57:15;;;;;;;11.00;7.90;;;;;;;4.12;73.93;98649.56;5094884;28;20028;-80
2023/01/27 01:59:45;;;;;;;9.73;7.87;;;;;;;4.27;74.09;98686.34;5094785;28;20058;-80
2023/01/27 02:02:14;;;;;;;12.33;8.27;;;;;;;3.95;74.31;98647.88;5094905;28;20024;-80
2023/01/27 02:04:49;;;;;;;7.47;6.40;;;;;;;4.20;74.15;98677.53;5094919;28;20047;-80
2023/01/27 02:07:35;;;;;;;9.93;7.50;;;;;;;4.47;73.99;98727.78;5094762;28;20478;-80
2023/01/27 02:10:01;;;;;;;8.67;7.77;;;;;;;3.82;74.17;98658.78;5094243;28;20568;-80
2023/01/27 02:12:27;;;;;;;8.10;6.63;;;;;;;4.40;74.22;98745.03;5094540;28;20024;-80
2023/01/27 02:14:53;;;;;;;7.97;6.73;;;;;;;3.86;74.13;98646.22;5110295;28;20038;-80
2023/01/27 02:17:18;;;;;;;8.10;7.13;;;;;;;3.74;73.91;98624.81;5094576;28;20412;-79
2023/01/27 02:20:07;;;;;;;7.63;6.67;;;;;;;4.09;74.16;98673.41;5110147;28;20449;-80
2023/01/27 02:23:21;;;;;;;8.23;7.33;;;;;;;4.00;74.27;98696.06;5110182;28;20020;-80
2023/01/27 02:25:58;;;;;;;8.87;6.93;;;;;;;4.09;74.62;98720.41;5092421;28;20033;-80
2023/01/27 02:28:27;;;;;;;6.93;6.13;;;;;;;4.38;74.46;98748.78;5094436;28;20046;-80
2023/01/27 02:30:52;;;;;;;10.10;7.70;;;;;;;3.77;74.14;98648.81;5094678;28;20012;-80
2023/01/27 02:33:18;;;;;;;9.70;7.03;;;;;;;4.12;74.64;98713.09;5093952;28;20023;-80
2023/01/27 02:35:57;;;;;;;7.73;6.93;;;;;;;4.37;74.12;98737.50;5094574;28;20103;-80
2023/01/27 02:38:25;;;;;;;7.33;5.97;;;;;;;4.03;74.12;98671.41;5094060;28;20027;-79
2023/01/27 02:40:54;;;;;;;9.03;6.70;;;;;;;3.79;74.22;98625.97;5093983;28;20512;-80
2023/01/27 02:43:19;;;;;;;6.03;5.40;;;;;;;4.22;74.07;98683.41;5093907;28;20031;-80
2023/01/27 02:45:46;;;;;;;6.60;5.87;;;;;;;4.05;74.00;98654.63;5094094;28;20024;-79
2023/01/27 02:48:12;;;;;;;5.97;5.40;;;;;;;4.44;74.18;98708.94;5093740;28;20027;-80
2023/01/27 02:50:37;;;;;;;6.50;5.27;;;;;;;4.20;73.92;98638.34;5093883;28;20024;-79
2023/01/27 02:53:03;;;;;;;6.63;5.37;;;;;;;3.83;73.98;98574.25;5093613;28;20020;-79
2023/01/27 02:55:28;;;;;;;5.17;4.67;;;;;;;4.11;73.96;98634.88;5093507;28;20020;-80
2023/01/27 02:57:53;;;;;;;6.53;5.53;;;;;;;4.39;74.00;98679.84;5093717;28;20030;-79
2023/01/27 03:00:19;;;;;;;7.17;5.87;;;;;;;3.65;73.99;98561.28;5093739;28;20073;-79
2023/01/27 03:02:44;;;;;;;5.47;4.97;;;;;;;3.90;74.31;98601.34;5109511;28;20061;-80
2023/01/27 03:05:10;;;;;;;6.63;5.93;;;;;;;4.35;74.11;98683.75;5093722;28;20027;-80
2023/01/27 03:07:35;;;;;;;7.20;5.97;;;;;;;4.18;74.32;98650.72;5093831;28;20024;-79
2023/01/27 03:10:01;;;;;;;6.40;5.80;;;;;;;4.17;74.22;98618.56;5093365;28;20027;-80
2023/01/27 03:12:26;;;;;;;6.33;4.93;;;;;;;4.49;73.83;98658.84;5093270;28;20093;-80
2023/01/27 03:20:22;;;;;;;6.27;5.63;;;;;;;4.51;73.75;98651.66;5093470;28;20059;-79
2023/01/27 03:22:48;;;;;;;7.10;5.70;;;;;;;4.72;73.81;98688.59;5093292;28;20397;-79
2023/01/27 03:25:14;;;;;;;7.33;6.63;;;;;;;4.86;73.57;98685.34;5093130;28;20039;-80
2023/01/27 03:27:40;;;;;;;7.90;6.60;;;;;;;4.33;73.70;98586.44;5108806;28;20489;-79
2023/01/27 03:30:08;;;;;;;10.40;7.43;;;;;;;4.42;73.56;98612.41;5092939;28;20045;-80
2023/01/27 03:32:34;;;;;;;9.13;7.60;;;;;;;4.33;73.36;98612.56;5108575;28;20046;-80
2023/01/27 03:35:00;;;;;;;12.03;9.17;;;;;;;4.60;73.68;98655.91;5093349;28;20103;-79
2023/01/27 03:48:31;;;;;;;9.03;7.00;;;;;;;4.84;73.40;98674.22;5093000;28;20492;-79
2023/01/27 03:50:57;;;;;;;7.73;6.30;;;;;;;4.98;73.62;98702.34;5092738;28;20055;-80
2023/01/27 03:53:23;;;;;;;13.00;9.43;;;;;;;4.28;73.44;98575.63;5108522;28;20045;-80
2023/01/27 03:55:48;;;;;;;14.80;10.47;;;;;;;5.06;73.71;98701.53;5092777;28;20107;-80
2023/01/27 03:58:24;;;;;;;9.77;8.77;;;;;;;4.79;73.33;98640.72;5092536;28;20038;-79
2023/01/27 04:00:52;;;;;;;9.10;7.33;;;;;;;4.86;73.68;98645.28;5092580;28;20020;-80
2023/01/27 04:08:59;;;;;;;9.73;7.87;;;;;;;4.63;74.01;98618.97;5092548;28;20039;-80
2023/01/27 04:14:10;;;;;;;14.73;9.63;;;;;;;5.01;74.31;98657.56;5092346;28;20116;-80
2023/01/27 04:16:35;;;;;;;14.47;9.27;;;;;;;5.05;73.75;98645.78;5092293;28;20511;-80
2023/01/27 04:19:03;;;;;;;14.37;8.80;;;;;;;5.05;73.83;98629.25;5092050;28;20023;-80
2023/01/27 04:21:28;;;;;;;11.57;7.87;;;;;;;4.57;73.81;98542.03;5090766;28;20027;-79
2023/01/27 04:23:54;;;;;;;12.63;9.07;;;;;;;4.09;73.88;98462.66;5092348;28;20016;-80
2023/01/27 04:26:20;;;;;;;12.20;8.70;;;;;;;5.06;73.86;98620.44;5092114;28;20565;-80
2023/01/27 04:28:46;;;;;;;16.43;9.03;;;;;;;4.31;74.08;98531.72;5107996;28;20123;-80
2023/01/27 04:31:12;;;;;;;15.43;9.10;;;;;;;4.55;74.15;98556.25;5092163;28;20091;-79
2023/01/27 04:33:37;;;;;;;17.17;11.30;;;;;;;4.40;73.89;98529.91;5107691;28;20058;-80
2023/01/27 04:36:03;;;;;;;20.10;13.40;;;;;;;4.30;73.83;98498.72;5092277;28;20020;-80
2023/01/27 04:38:28;;;;;;;17.47;11.50;;;;;;;4.71;73.96;98585.81;5090655;28;20054;-80
2023/01/27 04:40:54;;;;;;;14.57;8.87;;;;;;;4.62;74.33;98567.69;5091728;28;20024;-78
2023/01/27 04:43:20;;;;;;;12.60;8.13;;;;;;;4.25;74.39;98521.09;5091850;28;20170;-79
2023/01/27 04:45:45;;;;;;;12.00;8.53;;;;;;;5.02;74.01;98640.06;5091981;28;20110;-80
2023/01/27 04:48:11;;;;;;;13.90;8.57;;;;;;;4.55;74.43;98588.44;5091922;28;20412;-80
2023/01/27 04:50:36;;;;;;;17.70;11.83;;;;;;;5.05;74.50;98653.63;5091792;28;20047;-79
2023/01/27 04:53:01;;;;;;;19.37;11.90;;;;;;;4.89;74.28;98639.75;5091532;28;20027;-80
2023/01/27 04:55:27;;;;;;;14.07;9.27;;;;;;;5.00;74.15;98644.63;5091371;28;20016;-80
2023/01/27 04:57:52;;;;;;;13.50;7.80;;;;;;;5.06;73.86;98662.28;5091452;28;20038;-81
2023/01/27 05:00:19;;;;;;;11.20;7.80;;;;;;;5.03;74.02;98663.44;5092027;28;20512;-80
2023/01/27 05:02:44;;;;;;;13.20;9.20;;;;;;;4.64;73.72;98594.47;5091771;28;20023;-81
2023/01/27 05:05:10;;;;;;;15.10;9.53;;;;;;;5.11;73.77;98668.66;5092194;28;20016;-79
2023/01/27 05:07:37;;;;;;;14.00;9.47;;;;;;;5.10;73.83;98674.06;5091897;28;20098;-80
2023/01/27 05:10:02;;;;;;;13.17;8.37;;;;;;;4.95;73.67;98642.50;5107540;28;20020;-80
2023/01/27 05:12:28;;;;;;;11.53;7.77;;;;;;;4.81;73.57;98614.41;5091743;28;20023;-80
2023/01/27 05:14:53;;;;;;;13.40;9.13;;;;;;;4.69;73.56;98605.25;5091612;28;20024;-80
2023/01/27 05:17:19;;;;;;;11.37;8.43;;;;;;;4.72;73.46;98618.00;5091453;28;20454;-79
2023/01/27 05:19:44;;;;;;;12.53;8.00;;;;;;;4.36;73.52;98559.97;5091215;28;20044;-79
2023/01/27 05:22:10;;;;;;;12.83;7.80;;;;;;;5.12;73.60;98661.63;5091326;28;20521;-80
2023/01/27 05:24:37;;;;;;;11.93;9.07;;;;;;;4.82;73.44;98620.44;5091424;28;20015;-79
2023/01/27 05:27:03;;;;;;;16.27;9.97;;;;;;;4.56;73.43;98570.94;5091487;28;20032;-80
2023/01/27 05:29:28;;;;;;;12.90;7.93;;;;;;;5.06;73.63;98662.28;5091386;28;20039;-80
2023/01/27 05:31:53;;;;;;;11.63;7.57;;;;;;;4.56;73.79;98603.13;5091394;28;20024;-80
2023/01/27 05:34:19;;;;;;;14.97;8.93;;;;;;;4.96;73.75;98666.88;5106952;28;20078;-80
2023/01/27 05:36:44;;;;;;;15.07;8.23;;;;;;;4.50;73.71;98601.16;5091274;28;20110;-80
2023/01/27 05:39:10;;;;;;;16.00;8.97;;;;;;;4.60;73.55;98608.84;5091570;28;20024;-79
2023/01/27 05:41:36;;;;;;;19.20;11.10;;;;;;;4.94;73.59;98653.97;5106940;28;20107;-80
2023/01/27 05:44:01;;;;;;;19.37;11.60;;;;;;;4.95;73.50;98667.84;5091320;28;20079;-80
2023/01/27 05:46:29;;;;;;;14.80;10.57;;;;;;;4.63;73.61;98624.22;5090020;28;20023;-80
2023/01/27 05:48:57;;;;;;;18.47;10.50;;;;;;;4.68;73.47;98655.91;5091245;28;20091;-80
2023/01/27 05:51:24;;;;;;;14.80;11.33;;;;;;;4.94;73.32;98668.84;5091151;28;20458;-80
2023/01/27 05:53:51;;;;;;;20.20;11.30;;;;;;;4.75;73.42;98651.66;5090995;28;20420;-79
2023/01/27 05:56:18;;;;;;;14.67;9.90;;;;;;;4.55;73.29;98634.66;5089893;28;20180;-80
2023/01/27 05:58:44;;;;;;;21.87;13.20;;;;;;;4.71;73.65;98671.28;5091073;28;20038;-81
2023/01/27 06:01:19;;;;;;;20.70;12.60;;;;;;;4.33;73.58;98600.31;5089644;28;20500;-80
2023/01/27 06:03:46;;;;;;;21.43;15.30;;;;;;;4.34;73.24;98622.03;5090878;28;20016;-80
2023/01/27 06:06:12;;;;;;;21.20;13.00;;;;;;;4.82;73.87;98704.97;5090949;28;20557;-80
2023/01/27 06:08:39;;;;;;;23.43;13.97;;;;;;;4.47;73.84;98653.78;5093234;28;20024;-80
2023/01/27 06:11:06;;;;;;;23.33;15.00;;;;;;;4.30;73.85;98626.75;5094515;28;20016;-80
2023/01/27 06:13:34;;;;;;;28.83;17.93;;;;;;;3.87;73.87;98559.91;5094069;28;20094;-80
2023/01/27 06:16:01;;;;;;;28.80;17.10;;;;;;;4.58;74.01;98670.94;5094620;28;20035;-79
2023/01/27 06:18:26;;;;;;;30.73;17.57;;;;;;;4.26;74.17;98645.53;5095316;28;20024;-79
2023/01/27 06:20:55;;;;;;;27.73;18.47;;;;;;;4.35;74.45;98657.63;5096275;28;20432;-80
2023/01/27 06:23:21;;;;;;;33.97;21.50;;;;;;;4.51;74.35;98676.00;5101602;28;20098;-78
2023/01/27 06:25:48;;;;;;;31.83;21.50;;;;;;;4.44;73.84;98660.09;5106604;28;20052;-80
2023/01/27 06:28:14;;;;;;;35.30;24.03;;;;;;;3.21;74.66;98447.63;5109968;28;20047;-81
2023/01/27 06:30:41;;;;;;;23.97;16.17;;;;;;;3.36;74.23;98521.69;5107684;28;20063;-81
2023/01/27 06:33:07;;;;;;;25.37;15.43;;;;;;;4.77;74.57;98700.22;5106318;28;20093;-81
2023/01/27 06:35:36;;;;;;;27.37;17.03;;;;;;;4.79;74.47;98693.03;5105553;28;20410;-81
2023/01/27 06:38:03;;;;;;;25.73;17.27;;;;;;;4.81;74.57;98697.28;5100585;28;20028;-81
2023/01/27 06:40:30;;;;;;;30.87;20.13;;;;;;;4.40;74.49;98645.72;5101603;28;20035;-81
2023/01/27 06:42:56;;;;;;;34.60;22.83;;;;;;;4.05;74.60;98607.59;5100672;28;20035;-81
2023/01/27 06:45:22;;;;;;;32.83;21.80;;;;;;;4.74;75.08;98679.63;5100584;28;20420;-82
2023/01/27 06:47:59;;;;;;;27.20;19.20;;;;;;;4.17;74.91;98591.63;5101908;28;20034;-81
2023/01/27 06:50:27;;;;;;;29.50;19.67;;;;;;;4.76;75.10;98682.88;5099043;28;20024;-80
2023/01/27 06:52:57;;;;;;;25.37;16.37;;;;;;;4.71;75.12;98685.16;5098391;28;20047;-80
2023/01/27 06:55:23;;;;;;;21.77;15.00;;;;;;;4.53;75.17;98668.81;5096306;28;20046;-81
2023/01/27 06:57:48;;;;;;;19.03;14.23;;;;;;;4.63;75.22;98707.88;5095723;28;20489;-80
2023/01/27 07:00:15;;;;;;;18.53;13.17;;;;;;;4.33;75.05;98642.13;5094528;28;20024;-80
2023/01/27 07:02:41;;;;;;;19.33;15.53;;;;;;;4.10;74.86;98622.78;5098483;28;20035;-80
2023/01/27 07:05:06;;;;;;;20.57;16.80;;;;;;;3.87;75.31;98569.53;5097531;28;20028;-80
2023/01/27 07:07:32;;;;;;;17.67;13.67;;;;;;;4.29;75.08;98653.88;5095436;28;20050;-80
2023/01/27 07:09:57;;;;;;;17.57;14.07;;;;;;;4.43;75.23;98652.44;5097901;28;20066;-80
2023/01/27 07:12:23;;;;;;;17.77;13.53;;;;;;;4.17;75.23;98631.63;5097676;28;20028;-81
2023/01/27 07:14:48;;;;;;;13.83;11.07;;;;;;;3.41;75.61;98517.66;5099347;28;20024;-81
2023/01/27 07:17:13;;;;;;;19.10;13.63;;;;;;;4.25;75.52;98620.38;5096726;28;20035;-81
2023/01/27 07:19:39;;;;;;;14.17;11.33;;;;;;;2.99;75.58;98413.34;5093088;28;20055;-81
2023/01/27 07:22:04;;;;;;;14.03;11.60;;;;;;;3.49;75.77;98546.38;5111544;28;20039;-80
2023/01/27 07:24:30;;;;;;;13.83;11.17;;;;;;;4.54;75.64;98659.16;5118604;28;20035;-80
2023/01/27 07:26:55;;;;;;;17.37;13.80;;;;;;;2.79;75.53;98436.19;5117008;28;20027;-80
2023/01/27 07:29:21;;;;;;;13.30;10.90;;;;;;;4.55;76.07;98647.72;5100247;28;20027;-81
2023/01/27 07:31:46;;;;;;;19.77;15.70;;;;;;;4.00;75.88;98541.97;5097287;28;20409;-80
2023/01/27 07:34:12;;;;;;;21.47;14.23;;;;;;;4.57;76.02;98635.31;5099861;28;20488;-80
2023/01/27 07:36:37;;;;;;;14.77;12.67;;;;;;;2.33;75.54;98273.31;5096128;28;20042;-80
2023/01/27 07:39:03;;;;;;;17.43;12.73;;;;;;;4.51;76.16;98625.50;5099115;28;20028;-80
2023/01/27 07:41:28;;;;;;;14.97;11.73;;;;;;;4.10;76.36;98592.28;5097932;28;20062;-80
2023/01/27 07:43:53;;;;;;;12.50;10.33;;;;;;;3.96;76.01;98522.38;5093520;28;20029;-79
2023/01/27 07:46:19;;;;;;;12.80;10.77;;;;;;;4.69;75.82;98618.34;5093639;28;20047;-80
2023/01/27 07:48:45;;;;;;;13.03;11.17;;;;;;;4.50;75.84;98598.56;5091359;28;20063;-80
2023/01/27 07:51:12;;;;;;;10.60;8.97;;;;;;;4.65;75.44;98661.47;5092739;28;20049;-79
2023/01/27 07:53:38;;;;;;;10.23;8.43;;;;;;;4.34;75.94;98554.91;5092659;28;20027;-79
2023/01/27 07:56:04;;;;;;;9.57;8.27;;;;;;;4.24;75.63;98530.72;5092845;28;20024;-80
2023/01/27 07:58:29;;;;;;;9.57;7.13;;;;;;;4.97;75.93;98637.13;5093068;28;20036;-80
2023/01/27 08:00:55;;;;;;;8.23;7.07;;;;;;;4.32;75.75;98532.53;5086666;28;20027;-81
2023/01/27 08:03:23;;;;;;;7.13;5.77;;;;;;;5.01;76.12;98635.81;5090033;28;20141;-80
2023/01/27 08:05:49;;;;;;;9.20;6.83;;;;;;;4.67;76.14;98570.63;5091373;28;20031;-80
2023/01/27 08:08:15;;;;;;;10.40;7.97;;;;;;;5.06;76.11;98626.47;5092417;28;20020;-80
2023/01/27 08:10:45;;;;;;;15.57;10.77;;;;;;;4.98;76.15;98615.22;5090134;28;20411;-79
2023/01/27 08:13:11;;;;;;;17.23;10.73;;;;;;;4.70;76.44;98581.56;5106104;28;20028;-79
2023/01/27 08:15:37;;;;;;;16.33;10.93;;;;;;;5.13;76.28;98631.88;5112648;28;20031;-80
2023/01/27 08:18:03;;;;;;;12.47;9.10;;;;;;;4.45;76.28;98532.84;5099358;28;20500;-79
2023/01/27 08:20:28;;;;;;;13.30;10.00;;;;;;;4.67;76.77;98587.13;5114226;28;20086;-80
2023/01/27 08:22:54;;;;;;;9.70;8.00;;;;;;;4.54;76.40;98555.44;5100017;28;20050;-79
2023/01/27 08:25:20;;;;;;;7.60;6.33;;;;;;;4.63;76.49;98574.53;5096558;28;20020;-79
2023/01/27 08:27:50;;;;;;;7.37;6.50;;;;;;;4.23;76.57;98510.81;5094578;28;20032;-79
2023/01/27 08:30:16;;;;;;;11.10;8.30;;;;;;;4.63;76.43;98574.53;5091722;28;20027;-80
2023/01/27 08:32:41;;;;;;;8.23;6.43;;;;;;;4.96;77.00;98632.88;5092042;28;20028;-79
2023/01/27 08:35:07;;;;;;;7.43;6.60;;;;;;;4.73;76.59;98593.50;5091745;28;20492;-79
2023/01/27 08:37:32;;;;;;;9.27;6.30;;;;;;;4.73;76.79;98588.25;5081613;28;20029;-79
2023/01/27 08:40:00;;;;;;;10.63;7.17;;;;;;;4.99;76.41;98615.03;5091003;28;20093;-78
2023/01/27 08:42:25;;;;;;;10.63;7.40;;;;;;;4.91;76.33;98596.75;5087396;28;20039;-79
2023/01/27 08:44:51;;;;;;;8.77;6.93;;;;;;;5.20;76.15;98645.09;5086594;28;20029;-79
2023/01/27 08:47:16;;;;;;;10.43;7.50;;;;;;;5.08;76.29;98627.13;5095382;28;20028;-78
2023/01/27 08:49:42;;;;;;;9.23;7.10;;;;;;;5.19;76.31;98643.47;5096333;28;20038;-78
2023/01/27 08:52:07;;;;;;;13.00;11.27;;;;;;;5.13;76.01;98624.03;5107809;28;20031;-79
2023/01/27 08:54:32;;;;;;;12.37;9.17;;;;;;;5.25;76.17;98627.97;5087871;28;20031;-78
2023/01/27 08:57:01;;;;;;;18.50;12.00;;;;;;;4.65;75.96;98533.38;5091572;28;20432;-78
2023/01/27 08:59:26;;;;;;;11.27;8.33;;;;;;;4.50;76.08;98514.09;5089833;28;20101;-78
2023/01/27 09:01:51;;;;;;;12.97;10.97;;;;;;;4.57;76.02;98512.47;5090512;28;20052;-79
2023/01/27 09:04:17;;;;;;;9.47;7.50;;;;;;;5.19;75.76;98610.28;5089910;28;20099;-78
2023/01/27 09:06:42;;;;;;;13.33;9.07;;;;;;;5.33;76.26;98620.09;5090442;28;20031;-78
2023/01/27 09:09:08;;;;;;;17.90;13.67;;;;;;;5.09;76.07;98591.31;5088327;28;20024;-78
2023/01/27 09:11:35;;;;;;;13.13;9.63;;;;;;;4.85;75.76;98541.66;5090363;28;20565;-79
2023/01/27 09:14:00;;;;;;;8.80;6.23;;;;;;;5.07;75.69;98577.59;5090533;28;20036;-78
2023/01/27 09:16:25;;;;;;;11.30;8.60;;;;;;;4.81;75.74;98541.19;5091213;28;20436;-79
2023/01/27 09:18:51;;;;;;;9.50;7.80;;;;;;;4.67;75.82;98508.69;5089073;28;20044;-79
2023/01/27 09:21:16;;;;;;;10.00;7.93;;;;;;;4.78;75.73;98513.56;5094221;28;20036;-79
2023/01/27 09:23:42;;;;;;;10.33;8.03;;;;;;;4.83;75.70;98517.47;5091962;28;20517;-80
2023/01/27 09:26:07;;;;;;;12.50;10.70;;;;;;;5.20;75.59;98592.78;5091845;28;20024;-79
2023/01/27 09:28:32;;;;;;;10.53;8.50;;;;;;;5.15;75.94;98561.88;5086552;28;20092;-79
2023/01/27 09:30:59;;;;;;;11.30;9.37;;;;;;;5.33;75.78;98593.91;5084483;28;20503;-79
2023/01/27 09:33:25;;;;;;;10.97;7.50;;;;;;;5.33;75.80;98593.09;5085043;28;20027;-80
2023/01/27 09:36:05;;;;;;;10.77;7.43;;;;;;;4.83;75.41;98502.59;5090830;28;20028;-80
2023/01/27 09:38:35;;;;;;;10.60;9.00;;;;;;;5.17;75.69;98557.28;5089425;28;20028;-80
2023/01/27 09:41:10;;;;;;;14.33;10.70;;;;;;;5.53;75.54;98623.13;5090389;28;20035;-79
2023/01/27 09:43:44;;;;;;;15.87;12.30;;;;;;;5.54;75.63;98621.34;5090863;28;20489;-79
2023/01/27 09:46:28;;;;;;;13.50;11.13;;;;;;;5.57;75.95;98615.75;5088616;28;20524;-79
2023/01/27 09:49:08;;;;;;;14.27;10.77;;;;;;;5.57;75.67;98613.16;5082392;28;20032;-79
2023/01/27 09:51:44;;;;;;;17.33;10.93;;;;;;;5.48;75.75;98590.59;5108181;28;20034;-79
2023/01/27 09:54:45;;;;;;;12.80;9.67;;;;;;;5.65;76.02;98613.94;5101306;28;20020;-79
2023/01/27 09:57:14;;;;;;;14.23;10.47;;;;;;;5.62;75.73;98610.84;5094807;28;20040;-79
2023/01/27 09:59:50;;;;;;;14.63;9.97;;;;;;;4.96;75.80;98495.06;5095199;28;20462;-80
2023/01/27 10:02:43;;;;;;;12.97;10.33;;;;;;;5.61;75.98;98603.97;5091467;28;20101;-79
2023/01/27 10:05:18;;;;;;;13.32;9.63;;;;;;;5.61;75.67;98601.34;5095545;28;20519;-79
2023/01/27 10:07:56;;;;;;;15.33;10.73;;;;;;;5.65;75.97;98598.22;5090334;28;20039;-80
2023/01/27 10:10:57;;;;;;;15.97;12.40;;;;;;;5.62;75.96;98588.09;5092242;28;20037;-79
2023/01/27 10:13:38;;;;;;;18.40;12.43;;;;;;;5.65;75.77;98581.69;5055341;28;20036;-79
2023/01/27 10:16:03;;;;;;;12.80;10.47;;;;;;;5.68;75.57;98578.72;5091417;28;20035;-79
2023/01/27 10:18:55;;;;;;;12.43;9.03;;;;;;;5.67;75.38;98575.31;5092267;28;20028;-79
2023/01/27 10:21:26;;;;;;;11.48;9.63;;;;;;;5.08;75.57;98483.25;5089346;28;20051;-79
2023/01/27 10:24:11;;;;;;;10.80;8.17;;;;;;;5.66;75.63;98573.66;5093123;28;20028;-80
2023/01/27 10:26:52;;;;;;;12.33;9.90;;;;;;;5.60;75.53;98571.72;5084735;28;20281;-79
2023/01/27 10:29:25;;;;;;;16.33;11.70;;;;;;;5.66;75.78;98576.28;5092930;28;20107;-79
2023/01/27 10:32:07;;;;;;;15.53;10.87;;;;;;;5.66;75.63;98576.28;5090718;28;20035;-80
2023/01/27 10:34:43;;;;;;;14.27;10.95;;;;;;;5.66;75.85;98551.91;5089942;28;20523;-79
2023/01/27 10:37:22;;;;;;;15.33;11.20;;;;;;;5.67;76.23;98554.34;5094757;28;20186;-79
2023/01/27 10:40:09;;;;;;;14.53;11.50;;;;;;;5.42;75.95;98505.72;5095335;28;20066;-79
2023/01/27 10:43:00;;;;;;;14.20;9.07;;;;;;;5.64;75.67;98504.13;5084979;28;20417;-79
2023/01/27 10:45:55;;;;;;;18.17;13.52;;;;;;;5.66;76.00;98517.88;5089774;28;20024;-79
2023/01/27 10:48:48;;;;;;;18.97;13.03;;;;;;;5.82;76.26;98530.06;5089451;28;20028;-79
2023/01/27 10:51:25;;;;;;;22.90;16.58;;;;;;;5.23;75.63;98432.84;5079881;27;20028;-80
2023/01/27 10:53:57;;;;;;;18.90;13.97;;;;;;;5.95;75.75;98533.78;5092060;28;20055;-79
2023/01/27 10:56:43;;;;;;;14.80;11.27;;;;;;;5.49;75.92;98450.88;5090274;28;20016;-79
2023/01/27 10:59:27;;;;;;;14.93;9.95;;;;;;;5.92;76.59;98523.63;5088588;28;20024;-79
2023/01/27 11:02:03;;;;;;;14.48;10.02;;;;;;;5.97;75.84;98517.91;5092096;28;20024;-79
2023/01/27 11:04:38;;;;;;;14.10;10.57;;;;;;;5.53;75.98;98476.53;5093045;28;20043;-79
2023/01/27 11:07:05;;;;;;;12.40;9.52;;;;;;;4.77;75.57;98318.44;5090110;28;20492;-79
2023/01/27 11:09:34;;;;;;;13.67;8.63;;;;;;;5.75;75.90;98467.06;5088950;28;20074;-79
2023/01/27 11:12:04;;;;;;;13.68;9.27;;;;;;;5.80;75.88;98495.34;5101948;28;20028;-79
2023/01/27 11:14:36;;;;;;;12.97;9.07;;;;;;;6.06;75.89;98509.00;5087580;28;21559;-79
2023/01/27 11:17:17;;;;;;;12.57;8.73;;;;;;;5.58;76.21;98424.47;5090131;28;20024;-79
2023/01/27 11:19:51;;;;;;;11.90;8.70;;;;;;;6.14;76.26;98497.63;5097978;28;20036;-80
2023/01/27 11:22:21;;;;;;;13.80;8.63;;;;;;;6.08;75.84;98480.81;5106117;28;20161;-79
2023/01/27 11:25:09;;;;;;;12.30;8.38;;;;;;;6.18;76.06;98493.69;5081996;28;20043;-79
2023/01/27 11:28:04;;;;;;;11.32;8.15;;;;;;;6.16;76.56;98491.22;5082017;28;20107;-78
2023/01/27 11:30:37;;;;;;;13.63;7.78;;;;;;;6.18;76.38;98497.13;5083766;28;20088;-77
2023/01/27 11:33:16;;;;;;;14.35;9.15;;;;;;;6.21;76.61;98495.94;5088906;28;20424;-77
2023/01/27 11:35:42;;;;;;;13.57;9.23;;;;;;;6.24;76.06;98496.41;5100092;28;20043;-78
2023/01/27 11:38:15;;;;;;;12.63;9.20;;;;;;;5.79;75.79;98418.59;5101175;28;20024;-78
2023/01/27 11:40:42;;;;;;;14.70;9.85;;;;;;;5.57;76.00;98383.56;5092778;28;20028;-79
2023/01/27 11:43:14;;;;;;;12.00;8.43;;;;;;;6.26;76.39;98491.00;5091937;28;20093;-79
2023/01/27 11:45:41;;;;;;;14.48;8.48;;;;;;;6.27;76.46;98485.56;5091920;28;20027;-80
2023/01/27 11:48:12;;;;;;;12.50;7.60;;;;;;;6.35;76.89;98503.03;5091362;28;20032;-80
2023/01/27 11:50:40;;;;;;;12.75;8.82;;;;;;;5.99;76.32;98424.22;5108013;28;20028;-79
2023/01/27 11:53:15;;;;;;;14.95;9.63;;;;;;;6.43;76.62;98489.06;5092481;28;20035;-79
2023/01/27 11:55:45;;;;;;;15.30;9.25;;;;;;;6.50;76.51;98501.28;5099249;28;20031;-81
2023/01/27 11:58:10;;;;;;;17.10;9.48;;;;;;;6.53;76.45;98479.94;5083596;28;20107;-81
2023/01/27 12:00:46;;;;;;;13.15;8.13;;;;;;;6.52;76.82;98474.88;5109923;28;20560;-80
2023/01/27 12:03:41;;;;;;;15.05;9.18;;;;;;;6.57;76.29;98472.53;5098935;28;20501;-80
2023/01/27 12:06:14;;;;;;;13.57;7.75;;;;;;;5.99;75.67;98362.16;5078794;28;20103;-80
2023/01/27 12:08:43;;;;;;;11.75;7.25;;;;;;;6.48;75.39;98431.66;5084883;28;20436;-80
2023/01/27 12:11:25;;;;;;;12.95;6.45;;;;;;;6.73;76.20;98469.78;5090974;28;20109;-79
2023/01/27 12:14:03;;;;;;;13.63;9.80;;;;;;;6.63;75.85;98437.72;5094577;28;20026;-80
2023/01/27 12:16:50;;;;;;;18.90;12.07;;;;;;;6.75;75.55;98433.69;5071620;28;20025;-79